createdAt,value
2022-11-05T00:00:17.754Z,23.57
2022-11-05T00:03:02.833Z,21.45
2022-11-05T00:05:48.196Z,22.10
2022-11-05T00:08:34.010Z,21.67
2022-11-05T00:11:00.831Z,20.80
2022-11-05T00:13:46.647Z,21.13
2022-11-05T00:16:31.903Z,19.85
2022-11-05T00:19:07.554Z,19.63
2022-11-05T00:21:54.321Z,20.33
2022-11-05T00:24:39.693Z,21.23
2022-11-05T00:27:06.772Z,21.45
2022-11-05T00:29:33.540Z,21.37
2022-11-05T00:32:00.476Z,21.80
2022-11-05T00:34:27.183Z,21.85
2022-11-05T00:36:53.875Z,19.63
2022-11-05T00:39:20.580Z,20.80
2022-11-05T00:42:07.095Z,18.88
2022-11-05T00:44:52.669Z,21.55
2022-11-05T00:47:37.949Z,20.30
2022-11-05T00:50:04.861Z,18.23
2022-11-05T00:52:50.242Z,20.27
2022-11-05T00:55:16.874Z,20.75
2022-11-05T01:01:39.894Z,22.05
2022-11-05T01:04:06.597Z,20.27
2022-11-05T01:06:33.149Z,20.20
2022-11-05T01:08:59.731Z,20.38
2022-11-05T01:11:35.380Z,15.07
2022-11-05T01:14:08.196Z,16.52
2022-11-05T01:16:35.481Z,18.25
2022-11-05T01:19:04.457Z,17.48
2022-11-05T01:21:31.348Z,19.98
2022-11-05T01:23:58.211Z,20.05
2022-11-05T01:26:25.024Z,21.40
2022-11-05T01:28:57.564Z,20.90
2022-11-05T01:31:24.595Z,21.25
2022-11-05T01:33:51.294Z,21.87
2022-11-05T01:36:18.318Z,21.55
2022-11-05T01:38:45.286Z,21.47
2022-11-05T01:41:11.823Z,23.20
2022-11-05T01:43:56.792Z,21.48
2022-11-05T01:46:31.375Z,22.85
2022-11-05T01:49:07.011Z,23.23
2022-11-05T01:51:33.613Z,19.10
2022-11-05T01:54:04.917Z,21.63
2022-11-05T01:56:38.022Z,20.15
2022-11-05T01:59:14.612Z,20.83
2022-11-05T02:01:41.436Z,20.52
2022-11-05T02:04:12.625Z,20.25
2022-11-05T02:06:46.416Z,18.83
2022-11-05T02:09:30.482Z,19.67
2022-11-05T02:11:58.401Z,18.63
2022-11-05T02:17:18.481Z,18.42
2022-11-05T02:19:57.490Z,18.65
2022-11-05T02:22:30.098Z,19.02
2022-11-05T02:25:01.568Z,19.88
2022-11-05T02:27:53.424Z,19.88
2022-11-05T02:30:38.442Z,20.80
2022-11-05T02:33:31.288Z,17.88
2022-11-05T02:36:15.031Z,20.00
2022-11-05T02:38:50.655Z,19.90
2022-11-05T02:41:40.016Z,17.83
2022-11-05T02:44:34.722Z,18.98
2022-11-05T02:47:04.267Z,17.92
2022-11-05T02:50:23.373Z,18.92
2022-11-05T02:53:11.286Z,18.00
2022-11-05T02:55:59.493Z,19.80
2022-11-05T02:58:30.568Z,19.52
2022-11-05T03:00:59.156Z,19.25
2022-11-05T03:03:37.812Z,17.92
2022-11-05T03:06:29.056Z,18.90
2022-11-05T03:09:14.387Z,18.75
2022-11-05T03:12:02.959Z,20.23
2022-11-05T03:14:44.808Z,20.40
2022-11-05T03:17:17.533Z,21.15
2022-11-05T03:19:54.745Z,20.05
2022-11-05T03:22:27.217Z,20.02
2022-11-05T03:25:01.848Z,19.40
2022-11-05T03:27:34.610Z,20.88
2022-11-05T03:30:05.557Z,21.63
2022-11-05T03:32:35.242Z,21.48
2022-11-05T03:35:34.295Z,21.10
2022-11-05T03:38:05.343Z,21.20
2022-11-05T03:40:37.280Z,20.30
2022-11-05T03:43:07.810Z,19.80
2022-11-05T03:45:44.109Z,20.77
2022-11-05T03:48:12.211Z,21.08
2022-11-05T03:51:02.706Z,21.38
2022-11-05T03:53:35.125Z,21.20
2022-11-05T03:56:20.490Z,21.90
2022-11-05T03:58:48.226Z,21.92
2022-11-05T04:01:15.681Z,22.65
2022-11-05T04:03:42.341Z,23.10
2022-11-05T04:06:29.154Z,23.08
2022-11-05T04:09:15.030Z,21.53
2022-11-05T04:12:00.535Z,23.30
2022-11-05T04:14:27.272Z,22.75
2022-11-05T04:17:11.739Z,22.88
2022-11-05T04:20:04.242Z,23.33
2022-11-05T04:22:51.763Z,23.48
2022-11-05T04:25:19.599Z,24.65
2022-11-05T04:27:46.874Z,22.45
2022-11-05T04:30:18.561Z,22.55
2022-11-05T04:33:15.809Z,23.55
2022-11-05T04:35:45.095Z,22.15
2022-11-05T04:38:19.674Z,22.13
2022-11-05T04:40:47.857Z,21.67
2022-11-05T04:43:16.500Z,22.67
2022-11-05T04:45:44.095Z,23.67
2022-11-05T04:48:12.359Z,23.63
2022-11-05T04:50:39.735Z,25.50
2022-11-05T04:53:06.769Z,24.40
2022-11-05T04:55:34.234Z,19.57
2022-11-05T04:58:00.829Z,26.63
2022-11-05T05:00:27.716Z,23.65
2022-11-05T05:02:54.386Z,25.63
2022-11-05T05:05:22.752Z,27.77
2022-11-05T05:07:49.290Z,27.00
2022-11-05T05:10:18.619Z,29.02
2022-11-05T05:12:45.199Z,27.98
2022-11-05T05:15:11.934Z,28.70
2022-11-05T05:17:38.588Z,28.30
2022-11-05T05:20:23.879Z,29.02
2022-11-05T05:22:54.674Z,27.83
2022-11-05T05:25:22.503Z,28.63
2022-11-05T05:27:49.117Z,26.98
2022-11-05T05:30:16.163Z,27.65
2022-11-05T05:32:48.762Z,29.13
2022-11-05T05:35:16.131Z,27.70
2022-11-05T05:37:43.049Z,27.73
2022-11-05T05:40:10.290Z,29.55
2022-11-05T05:42:42.666Z,28.17
2022-11-05T05:45:09.930Z,27.67
2022-11-05T05:47:36.692Z,29.00
2022-11-05T05:50:03.696Z,26.58
2022-11-05T05:52:30.272Z,29.17
2022-11-05T05:54:56.781Z,29.90
2022-11-05T05:57:23.352Z,27.17
2022-11-05T05:59:49.972Z,29.00
2022-11-05T06:02:16.767Z,28.75
2022-11-05T06:04:43.373Z,30.83
2022-11-05T06:07:09.914Z,30.30
2022-11-05T06:09:36.421Z,29.92
2022-11-05T06:12:03.111Z,29.77
2022-11-05T06:14:30.002Z,27.33
2022-11-05T06:16:56.605Z,29.92
2022-11-05T06:19:23.255Z,27.33
2022-11-05T06:21:49.843Z,33.10
2022-11-05T06:24:16.548Z,31.70
2022-11-05T06:26:43.434Z,30.63
2022-11-05T06:29:10.734Z,29.58
2022-11-05T06:31:37.305Z,30.77
2022-11-05T06:34:04.026Z,29.73
2022-11-05T06:42:30.922Z,29.13
2022-11-05T06:44:57.411Z,29.77
2022-11-05T06:47:23.873Z,29.13
2022-11-05T06:49:50.402Z,33.78
2022-11-05T06:52:16.991Z,33.42
2022-11-05T06:54:43.904Z,34.47
2022-11-05T06:57:12.311Z,32.33
2022-11-05T06:59:39.456Z,30.10
2022-11-05T07:02:07.661Z,30.87
2022-11-05T07:04:34.142Z,37.50
2022-11-05T07:07:03.391Z,33.70
2022-11-05T07:09:30.275Z,29.92
2022-11-05T07:11:56.715Z,29.80
2022-11-05T07:14:23.136Z,29.35
2022-11-05T07:16:49.562Z,29.50
2022-11-05T07:19:15.968Z,30.38
2022-11-05T07:21:43.290Z,29.38
2022-11-05T07:24:09.748Z,28.38
2022-11-05T07:26:36.155Z,28.23
2022-11-05T07:33:39.651Z,25.63
2022-11-05T07:36:06.304Z,35.83
2022-11-05T07:38:32.784Z,23.20
2022-11-05T07:41:00.243Z,22.60
2022-11-05T07:43:26.718Z,20.50
2022-11-05T07:45:53.424Z,20.38
2022-11-05T07:48:19.858Z,19.17
2022-11-05T07:50:46.379Z,20.33
2022-11-05T07:53:14.834Z,20.48
2022-11-05T07:55:42.546Z,18.95
2022-11-05T07:58:10.060Z,17.58
2022-11-05T08:00:36.898Z,18.60
2022-11-05T08:03:15.401Z,17.80
2022-11-05T08:05:44.773Z,18.83
2022-11-05T08:08:14.655Z,16.75
2022-11-05T08:10:45.803Z,18.40
2022-11-05T08:13:13.453Z,16.98
2022-11-05T08:15:41.016Z,17.25
2022-11-05T08:18:12.806Z,17.50
2022-11-05T08:20:39.486Z,18.13
2022-11-05T08:23:06.451Z,17.50
2022-11-05T08:25:33.262Z,18.30
2022-11-05T08:28:05.296Z,16.08
2022-11-05T08:30:32.503Z,17.13
2022-11-05T08:33:01.862Z,17.33
2022-11-05T08:35:29.110Z,16.70
2022-11-05T08:38:02.738Z,16.05
2022-11-05T08:40:31.826Z,16.60
2022-11-05T08:42:59.718Z,17.05
2022-11-05T08:48:02.317Z,15.63
2022-11-05T08:50:29.327Z,13.65
2022-11-05T08:52:56.456Z,13.83
2022-11-05T08:55:23.399Z,14.27
2022-11-05T08:57:58.905Z,15.45
2022-11-05T09:00:26.655Z,18.05
2022-11-05T09:02:53.253Z,13.63
2022-11-05T09:05:20.096Z,13.25
2022-11-05T09:07:46.824Z,12.65
2022-11-05T09:10:13.486Z,14.07
2022-11-05T09:12:40.044Z,10.65
2022-11-05T09:15:07.296Z,12.32
2022-11-05T09:17:33.842Z,13.63
2022-11-05T09:20:01.977Z,18.75
2022-11-05T09:22:28.557Z,15.70
2022-11-05T09:24:55.220Z,10.73
2022-11-05T09:27:21.741Z,10.63
2022-11-05T09:29:48.266Z,10.23
2022-11-05T09:32:18.578Z,10.02
2022-11-05T09:34:45.674Z,10.43
2022-11-05T09:37:12.379Z,10.10
2022-11-05T09:39:38.846Z,10.52
2022-11-05T09:42:08.964Z,10.40
2022-11-05T09:44:42.005Z,18.05
2022-11-05T09:47:18.501Z,26.85
2022-11-05T09:49:50.325Z,17.13
2022-11-05T09:52:23.251Z,8.43
2022-11-05T09:54:50.514Z,8.10
2022-11-05T09:57:23.320Z,8.23
2022-11-05T09:59:53.972Z,8.70
2022-11-05T10:02:29.225Z,8.27
2022-11-05T10:05:09.151Z,8.70
2022-11-05T10:07:44.329Z,7.80
2022-11-05T10:10:44.651Z,6.93
2022-11-05T10:13:18.730Z,10.07
2022-11-05T10:18:47.071Z,7.95
2022-11-05T10:21:32.275Z,7.18
2022-11-05T10:24:19.434Z,7.03
2022-11-05T10:26:49.008Z,6.75
2022-11-05T10:29:23.074Z,6.53
2022-11-05T10:31:50.312Z,6.20
2022-11-05T10:34:17.907Z,5.28
2022-11-05T10:36:44.554Z,5.60
2022-11-05T10:39:17.423Z,5.47
2022-11-05T10:41:43.819Z,5.10
2022-11-05T10:44:29.186Z,6.50
2022-11-05T10:47:20.506Z,5.00
2022-11-05T10:50:00.086Z,4.32
2022-11-05T10:52:34.314Z,3.65
2022-11-05T10:55:07.290Z,4.90
2022-11-05T10:57:37.232Z,3.30
2022-11-05T11:00:21.835Z,3.92
2022-11-05T11:02:51.154Z,4.28
2022-11-05T11:05:26.100Z,4.72
2022-11-05T11:07:56.463Z,3.08
2022-11-05T11:10:24.212Z,3.78
2022-11-05T11:15:20.831Z,2.57
2022-11-05T11:17:49.124Z,3.05
2022-11-05T11:20:32.272Z,3.10
2022-11-05T11:23:14.522Z,2.80
2022-11-05T11:25:59.029Z,3.05
2022-11-05T11:28:27.541Z,3.15
2022-11-05T11:31:16.592Z,2.25
2022-11-05T11:33:46.344Z,2.53
2022-11-05T11:36:14.604Z,14.82
2022-11-05T11:38:41.639Z,4.32
2022-11-05T11:41:25.396Z,4.73
2022-11-05T11:43:56.751Z,1.95
2022-11-05T11:46:23.239Z,1.50
2022-11-05T11:48:50.002Z,1.75
2022-11-05T11:51:30.575Z,1.88
2022-11-05T11:53:59.359Z,1.80
2022-11-05T11:56:26.997Z,1.30
2022-11-05T11:58:55.429Z,1.77
2022-11-05T12:01:56.953Z,0.90
2022-11-05T12:05:04.812Z,1.73
2022-11-05T12:08:03.353Z,3.05
2022-11-05T12:10:35.897Z,1.75
2022-11-05T12:13:20.856Z,1.73
2022-11-05T12:15:54.585Z,1.85
2022-11-05T12:18:45.408Z,2.17
2022-11-05T12:21:51.481Z,10.65
2022-11-05T12:24:24.241Z,3.08
2022-11-05T12:27:33.424Z,1.80
2022-11-05T12:30:05.301Z,2.03
2022-11-05T12:33:03.312Z,2.40
2022-11-05T12:35:57.391Z,2.13
2022-11-05T12:39:04.459Z,2.38
2022-11-05T12:41:54.583Z,2.07
2022-11-05T12:44:39.635Z,2.33
2022-11-05T12:47:21.143Z,2.08
2022-11-05T12:50:16.784Z,2.83
2022-11-05T12:52:58.383Z,2.97
2022-11-05T12:55:28.869Z,2.05
2022-11-05T12:58:03.735Z,2.42
2022-11-05T13:00:31.586Z,1.88
2022-11-05T13:05:49.558Z,2.78
2022-11-05T13:08:21.426Z,2.55
2022-11-05T13:11:12.685Z,1.95
2022-11-05T13:13:53.988Z,2.17
2022-11-05T13:16:27.322Z,5.80
2022-11-05T13:19:03.173Z,2.17
2022-11-05T13:21:30.678Z,2.25
2022-11-05T13:24:06.404Z,2.90
2022-11-05T13:26:43.150Z,2.58
2022-11-05T13:29:33.653Z,2.53
2022-11-05T13:32:30.432Z,1.90
2022-11-05T13:34:59.411Z,2.22
2022-11-05T13:37:53.045Z,2.20
2022-11-05T13:40:30.718Z,1.40
2022-11-05T13:46:10.973Z,2.00
2022-11-05T13:49:13.040Z,2.42
2022-11-05T13:51:57.038Z,1.90
2022-11-05T13:54:51.277Z,1.95
2022-11-05T13:57:46.767Z,1.60
2022-11-05T14:00:20.149Z,1.83
2022-11-05T14:03:15.853Z,2.10
2022-11-05T14:05:43.276Z,2.88
2022-11-05T14:08:18.520Z,1.90
2022-11-05T14:10:57.738Z,1.75
2022-11-05T14:13:34.359Z,2.03
2022-11-05T14:16:05.174Z,6.43
2022-11-05T14:18:45.328Z,37.33
2022-11-05T14:21:30.443Z,1.52
2022-11-05T14:24:19.459Z,1.45
2022-11-05T14:27:05.974Z,1.00
2022-11-05T14:29:46.753Z,1.65
2022-11-05T14:32:25.228Z,1.25
2022-11-05T14:35:04.301Z,1.52
2022-11-05T14:37:30.786Z,1.73
2022-11-05T14:40:17.465Z,1.63
2022-11-05T14:42:51.576Z,1.23
2022-11-05T14:45:36.806Z,1.52
2022-11-05T14:48:06.670Z,2.05
2022-11-05T14:50:42.912Z,1.60
2022-11-05T14:53:31.453Z,1.48
2022-11-05T14:56:11.678Z,1.85
2022-11-05T14:58:40.284Z,2.40
2022-11-05T15:01:33.915Z,2.03
2022-11-05T15:04:21.033Z,6.35
2022-11-05T15:07:02.733Z,3.28
2022-11-05T15:09:49.701Z,2.38
2022-11-05T15:12:24.763Z,2.38
2022-11-05T15:15:02.672Z,2.45
2022-11-05T15:17:33.197Z,46.97
2022-11-05T15:20:23.673Z,37.83
2022-11-05T15:22:55.921Z,2.55
2022-11-05T15:25:47.767Z,2.70
2022-11-05T15:28:16.847Z,1.90
2022-11-05T15:31:05.665Z,2.03
2022-11-05T15:33:32.956Z,2.00
2022-11-05T15:36:17.686Z,2.30
2022-11-05T15:39:02.092Z,1.58
2022-11-05T15:41:34.340Z,1.88
2022-11-05T15:44:02.255Z,1.80
2022-11-05T15:48:56.598Z,2.22
2022-11-05T15:51:25.509Z,1.92
2022-11-05T15:54:23.751Z,1.92
2022-11-05T15:56:53.355Z,2.00
2022-11-05T15:59:26.608Z,6.03
2022-11-05T16:02:05.390Z,2.28
2022-11-05T16:04:34.640Z,2.97
2022-11-05T16:07:07.822Z,3.00
2022-11-05T16:09:37.602Z,51.92
2022-11-05T16:12:20.534Z,3.67
2022-11-05T16:15:17.502Z,3.20
2022-11-05T16:17:51.367Z,3.50
2022-11-05T16:20:19.488Z,3.78
2022-11-05T16:22:48.357Z,3.65
2022-11-05T16:25:44.374Z,3.05
2022-11-05T16:28:27.528Z,3.17
2022-11-05T16:31:05.364Z,3.25
2022-11-05T16:33:35.212Z,4.15
2022-11-05T16:36:01.746Z,3.13
2022-11-05T16:38:28.269Z,3.97
2022-11-05T16:40:54.723Z,4.13
2022-11-05T16:43:24.236Z,2.97
2022-11-05T16:45:55.025Z,4.03
2022-11-05T16:48:21.757Z,9.57
2022-11-05T16:50:48.280Z,4.72
2022-11-05T16:53:14.830Z,4.28
2022-11-05T16:55:42.871Z,2.95
2022-11-05T16:58:25.136Z,3.22
2022-11-05T17:00:55.213Z,2.40
2022-11-05T17:03:21.764Z,25.75
2022-11-05T17:05:48.412Z,3.20
2022-11-05T17:08:16.123Z,2.78
2022-11-05T17:10:43.742Z,3.35
2022-11-05T17:13:15.256Z,2.25
2022-11-05T17:15:43.834Z,2.17
2022-11-05T17:18:16.933Z,2.42
2022-11-05T17:20:46.832Z,2.00
2022-11-05T17:23:18.952Z,2.33
2022-11-05T17:25:54.490Z,2.42
2022-11-05T17:28:21.843Z,2.55
2022-11-05T17:30:54.739Z,2.50
2022-11-05T17:36:08.020Z,3.40
2022-11-05T17:41:18.671Z,3.53
2022-11-05T17:43:45.581Z,4.43
2022-11-05T17:46:15.812Z,7.93
2022-11-05T17:48:42.425Z,7.68
2022-11-05T17:51:10.647Z,3.88
2022-11-05T17:53:37.854Z,60.28
2022-11-05T17:56:28.852Z,4.30
2022-11-05T17:59:01.259Z,4.00
2022-11-05T18:01:34.039Z,3.92
2022-11-05T18:04:07.251Z,4.47
2022-11-05T18:06:35.527Z,4.65
2022-11-05T18:09:02.151Z,4.50
2022-11-05T18:11:28.625Z,4.05
2022-11-05T18:13:55.113Z,4.13
2022-11-05T18:16:21.677Z,4.40
2022-11-05T18:18:49.348Z,5.55
2022-11-05T18:21:17.453Z,5.93
2022-11-05T18:23:43.915Z,5.60
2022-11-05T18:26:12.048Z,6.22
2022-11-05T18:28:38.688Z,13.05
2022-11-05T18:31:15.268Z,5.03
2022-11-05T18:33:44.491Z,8.88
2022-11-05T18:36:21.429Z,9.50
2022-11-05T18:38:50.786Z,8.00
2022-11-05T18:41:19.467Z,6.15
2022-11-05T18:43:46.551Z,9.73
2022-11-05T18:46:35.998Z,7.50
2022-11-05T18:49:11.908Z,7.40
2022-11-05T18:51:38.637Z,5.97
2022-11-05T18:58:40.284Z,5.97
2022-11-05T19:01:15.471Z,6.47
2022-11-05T19:03:42.131Z,7.45
2022-11-05T19:06:08.929Z,6.45
2022-11-05T19:08:38.639Z,7.43
2022-11-05T19:11:15.198Z,7.70
2022-11-05T19:13:42.676Z,12.13
2022-11-05T19:16:15.891Z,8.27
2022-11-05T19:18:42.847Z,8.07
2022-11-05T19:21:11.712Z,8.32
2022-11-05T19:23:39.445Z,8.38
2022-11-05T19:26:10.530Z,36.40
2022-11-05T19:28:38.213Z,99.75
2022-11-05T19:31:05.472Z,11.52
2022-11-05T19:33:32.187Z,10.10
2022-11-05T19:35:59.823Z,9.40
2022-11-05T19:38:26.528Z,9.75
2022-11-05T19:40:53.144Z,8.85
2022-11-05T19:43:19.686Z,38.13
2022-11-05T19:45:46.460Z,13.35
2022-11-05T19:48:18.006Z,61.30
2022-11-05T19:50:45.961Z,10.18
2022-11-05T19:53:12.928Z,9.10
2022-11-05T19:55:40.927Z,10.65
2022-11-05T19:58:08.343Z,9.73
2022-11-05T20:00:35.357Z,10.18
2022-11-05T20:03:02.199Z,10.80
2022-11-05T20:05:28.980Z,10.43
2022-11-05T20:07:56.417Z,10.75
2022-11-05T20:10:23.152Z,10.32
2022-11-05T20:12:49.862Z,8.32
2022-11-05T20:15:18.745Z,9.90
2022-11-05T20:17:52.527Z,9.73
2022-11-05T20:20:19.977Z,9.82
2022-11-05T20:22:46.675Z,10.30
2022-11-05T20:25:13.580Z,10.90
2022-11-05T20:27:40.595Z,10.02
2022-11-05T20:30:08.352Z,9.73
2022-11-05T20:32:34.922Z,9.25
2022-11-05T20:35:01.667Z,9.80
2022-11-05T20:37:28.191Z,10.05
2022-11-05T20:39:54.740Z,10.15
2022-11-05T20:42:22.826Z,9.65
2022-11-05T20:44:49.444Z,10.68
2022-11-05T20:47:16.208Z,32.97
2022-11-05T20:49:43.209Z,26.30
2022-11-05T20:52:10.092Z,11.15
2022-11-05T20:54:36.824Z,9.20
2022-11-05T20:57:03.626Z,9.02
2022-11-05T20:59:30.426Z,9.65
2022-11-05T21:01:57.277Z,9.27
2022-11-05T21:04:24.305Z,10.45
2022-11-05T21:06:50.961Z,9.77
2022-11-05T21:09:17.584Z,10.82
2022-11-05T21:12:02.576Z,9.70
2022-11-05T21:14:29.484Z,10.55
2022-11-05T21:16:56.290Z,10.43
2022-11-05T21:19:24.224Z,11.07
2022-11-05T21:24:17.582Z,10.38
2022-11-05T21:26:44.281Z,15.32
2022-11-05T21:29:12.841Z,10.32
2022-11-05T21:31:40.641Z,9.48
2022-11-05T21:34:07.301Z,9.45
2022-11-05T21:36:34.376Z,8.85
2022-11-05T21:39:01.124Z,10.17
2022-11-05T21:41:27.919Z,10.13
2022-11-05T21:43:54.708Z,10.18
2022-11-05T21:46:21.549Z,9.52
2022-11-05T21:48:48.607Z,10.35
2022-11-05T21:51:33.738Z,9.73
2022-11-05T21:54:18.505Z,9.80
2022-11-05T21:57:09.711Z,9.60
2022-11-05T21:59:49.208Z,8.85
2022-11-05T22:02:22.120Z,9.30
2022-11-05T22:04:54.170Z,9.93
2022-11-05T22:07:24.400Z,9.23
2022-11-05T22:09:51.356Z,12.32
2022-11-05T22:12:18.168Z,18.45
2022-11-05T22:14:44.744Z,11.32
2022-11-05T22:17:12.530Z,9.52
2022-11-05T22:19:39.887Z,9.50
2022-11-05T22:22:07.883Z,9.57
2022-11-05T22:27:04.614Z,10.35
2022-11-05T22:29:31.175Z,10.18
2022-11-05T22:31:57.978Z,11.20
2022-11-05T22:34:25.715Z,10.63
2022-11-05T22:36:52.845Z,9.32
2022-11-05T22:39:20.119Z,10.37
2022-11-05T22:41:46.742Z,10.20
2022-11-05T22:44:14.519Z,13.52
2022-11-05T22:46:41.899Z,13.50
2022-11-05T22:49:08.621Z,9.50
2022-11-05T22:51:36.776Z,10.20
2022-11-05T22:54:04.067Z,9.73
2022-11-05T22:56:35.346Z,10.35
2022-11-05T22:59:02.433Z,10.52
2022-11-05T23:01:29.488Z,11.60
2022-11-05T23:03:57.477Z,15.33
2022-11-05T23:09:43.678Z,10.60
2022-11-05T23:12:31.965Z,11.57
2022-11-05T23:15:00.408Z,9.38
2022-11-05T23:17:46.633Z,10.00
2022-11-05T23:20:34.620Z,7.85
2022-11-05T23:23:20.079Z,10.68
2022-11-05T23:25:46.695Z,9.30
2022-11-05T23:28:14.150Z,9.85
2022-11-05T23:31:03.398Z,10.00
2022-11-05T23:33:33.629Z,29.55
2022-11-05T23:36:18.805Z,10.25
2022-11-05T23:38:45.396Z,8.68
2022-11-05T23:41:30.668Z,9.73
2022-11-05T23:44:15.814Z,9.13
2022-11-05T23:47:01.117Z,10.50
2022-11-05T23:49:28.092Z,8.45
2022-11-05T23:51:54.844Z,36.80
2022-11-05T23:54:22.600Z,25.98
2022-11-05T23:56:49.208Z,9.63
2022-11-05T23:59:16.458Z,8.93
